This is the latest recevied weather packets stored in our database for station/object KB9HUO. If no packets are shown the sender has not sent any weather packets the latest 10 day(s).
| Time | Temp. | Humidity | Pressure | Rain* | Wind** | Luminosity | Snow |
|---|---|---|---|---|---|---|---|
| 1777395012 | 21.11° C | 71% | 1016.7 hPa | 0 mm | - | 979 W/m² | - |
| 1777394708 | 21.67° C | 71% | 1016.7 hPa | 0 mm | - | 853 W/m² | - |
| 1777394405 | 20.56° C | 74% | 1016.6 hPa | 0 mm | - | 644 W/m² | - |
| 1777394101 | 20.56° C | 72% | 1016.5 hPa | 0 mm | - | 243 W/m² | - |
| 1777393797 | 20.56° C | 71% | 1016.7 hPa | 0 mm | - | 191 W/m² | - |
| 1777393496 | 21.11° C | 71% | 1016.6 hPa | 0 mm | - | 190 W/m² | - |
| 1777393192 | 20.56° C | 74% | 1016.7 hPa | 0 mm | - | 887 W/m² | - |
| 1777392889 | 20° C | 73% | 1016.7 hPa | 0 mm | - | 886 W/m² | - |
| 1777392584 | 20° C | 73% | 1016.9 hPa | 0 mm | - | 172 W/m² | - |
| 1777392281 | 20° C | 75% | 1016.7 hPa | 0 mm | - | 333 W/m² | - |
| 1777391980 | 20.56° C | 71% | 1016.6 hPa | 0 mm | - | 204 W/m² | - |
| 1777391676 | 20.56° C | 72% | 1016.5 hPa | 0 mm | - | 760 W/m² | - |
| 1777391372 | 20.56° C | 72% | 1016.8 hPa | 0 mm | - | 879 W/m² | - |
| 1777391070 | 20° C | 73% | 1016.5 hPa | 0 mm | - | 874 W/m² | - |
| 1777390765 | 20° C | 73% | 1016.6 hPa | 0 mm | - | 820 W/m² | - |
| 1777390462 | 20° C | 75% | 1016.7 hPa | 0 mm | - | 832 W/m² | - |
| 1777390159 | 19.44° C | 76% | 1016.5 hPa | 0 mm | - | 765 W/m² | - |
| 1777389855 | 19.44° C | 77% | 1016.2 hPa | 0 mm | - | 370 W/m² | - |
| 1777389552 | 19.44° C | 78% | 1016.4 hPa | 0 mm | - | 644 W/m² | - |
| 1777389248 | 20° C | 79% | 1016.2 hPa | 0 mm | - | 415 W/m² | - |
| 1777388947 | 20° C | 79% | 1016 hPa | 0 mm | - | 665 W/m² | - |
| 1777388643 | 20° C | 78% | 1016 hPa | 0 mm | - | 425 W/m² | - |
| 1777388340 | 19.44° C | 82% | 1016 hPa | 0 mm | - | 677 W/m² | - |
| 1777388039 | 18.89° C | 82% | 1016 hPa | 0 mm | - | 181 W/m² | - |
| 1777387736 | 18.89° C | 83% | 1016 hPa | 0 mm | - | 275 W/m² | - |
* Rain latest hour (hover to see other rain measurements)
** Current wind speed in m/s (hover to see current wind gust speed)